createdAt,value
2023-05-15T00:02:14.470Z,100605.41
2023-05-15T00:04:42.196Z,100602.78
2023-05-15T00:07:10.420Z,100612.91
2023-05-15T00:09:38.026Z,100610.25
2023-05-15T00:12:05.864Z,100608.38
2023-05-15T00:14:33.643Z,100608.22
2023-05-15T00:17:01.313Z,100615.94
2023-05-15T00:19:28.967Z,100609.84
2023-05-15T00:21:56.899Z,100615.78
2023-05-15T00:24:24.519Z,100613.06
2023-05-15T00:26:52.409Z,100613.75
2023-05-15T00:29:20.141Z,100620.50
2023-05-15T00:31:48.124Z,100618.59
2023-05-15T00:34:15.942Z,100618.47
2023-05-15T00:36:44.267Z,100615.44
2023-05-15T00:39:12.238Z,100614.63
2023-05-15T00:41:41.959Z,100616.09
2023-05-15T00:44:11.483Z,100616.84
2023-05-15T00:46:40.298Z,100626.16
2023-05-15T00:49:13.587Z,100617.41
2023-05-15T00:51:42.468Z,100622.56
2023-05-15T00:54:11.504Z,100633.50
2023-05-15T00:56:40.481Z,100629.16
2023-05-15T00:59:08.340Z,100622.94
2023-05-15T01:01:36.301Z,100625.56
2023-05-15T01:04:04.628Z,100628.06
2023-05-15T01:06:33.055Z,100626.22
2023-05-15T01:09:04.212Z,100637.53
2023-05-15T01:11:36.565Z,100629.66
2023-05-15T01:14:06.672Z,100630.34
2023-05-15T01:16:36.234Z,100631.84
2023-05-15T01:19:05.522Z,100637.97
2023-05-15T01:21:39.245Z,100639.66
2023-05-15T01:24:48.266Z,100639.13
2023-05-15T01:27:21.484Z,100635.03
2023-05-15T01:30:27.651Z,100635.22
2023-05-15T01:33:19.798Z,100631.78
2023-05-15T01:36:12.849Z,100638.69
2023-05-15T01:38:49.088Z,100635.03
2023-05-15T01:41:22.661Z,100637.41
2023-05-15T01:43:56.737Z,100635.66
2023-05-15T01:46:29.040Z,100643.38
2023-05-15T01:49:03.315Z,100632.28
2023-05-15T01:51:32.067Z,100636.47
2023-05-15T01:54:00.428Z,100636.63
2023-05-15T01:56:28.984Z,100634.03
2023-05-15T01:58:57.442Z,100636.72
2023-05-15T02:01:26.532Z,100642.63
2023-05-15T02:03:55.587Z,100645.38
2023-05-15T02:06:24.725Z,100651.53
2023-05-15T02:08:55.348Z,100651.72
2023-05-15T02:11:23.015Z,100657.06
2023-05-15T02:13:51.950Z,100651.97
2023-05-15T02:16:20.121Z,100660.00
2023-05-15T02:18:48.435Z,100659.38
2023-05-15T02:21:35.914Z,100656.22
2023-05-15T02:24:04.177Z,100656.78
2023-05-15T02:27:05.476Z,100648.00
2023-05-15T02:29:51.795Z,100648.19
2023-05-15T02:32:42.295Z,100646.81
2023-05-15T02:35:32.056Z,100651.50
2023-05-15T02:38:07.170Z,100655.81
2023-05-15T02:40:37.571Z,100648.38
2023-05-15T02:43:08.879Z,100649.56
2023-05-15T02:45:36.960Z,100650.69
2023-05-15T02:48:05.795Z,100649.38
2023-05-15T02:50:34.107Z,100651.34
2023-05-15T02:53:06.160Z,100659.69
2023-05-15T02:55:34.672Z,100647.91
2023-05-15T02:58:03.725Z,100649.19
2023-05-15T03:00:31.247Z,100655.63
2023-05-15T03:02:58.934Z,100650.63
2023-05-15T03:05:27.084Z,100663.06
2023-05-15T03:07:55.074Z,100656.44
2023-05-15T03:10:24.377Z,100653.34
2023-05-15T03:12:51.941Z,100665.81
2023-05-15T03:15:20.343Z,100661.84
2023-05-15T03:17:48.284Z,100667.31
2023-05-15T03:20:16.520Z,100661.66
2023-05-15T03:22:44.208Z,100667.34
2023-05-15T03:25:13.372Z,100667.59
2023-05-15T03:27:41.093Z,100664.50
2023-05-15T03:30:09.283Z,100670.22
2023-05-15T03:32:37.021Z,100667.31
2023-05-15T03:35:04.936Z,100673.78
2023-05-15T03:37:33.369Z,100680.22
2023-05-15T03:40:01.153Z,100668.53
2023-05-15T03:42:29.660Z,100662.78
2023-05-15T03:44:57.440Z,100667.47
2023-05-15T03:47:25.161Z,100676.69
2023-05-15T03:49:54.110Z,100673.63
2023-05-15T03:52:21.602Z,100680.78
2023-05-15T03:54:50.593Z,100675.84
2023-05-15T03:57:19.552Z,100677.81
2023-05-15T03:59:47.108Z,100675.59
2023-05-15T04:02:14.779Z,100677.66
2023-05-15T04:04:42.389Z,100664.94
2023-05-15T04:07:10.310Z,100680.09
2023-05-15T04:09:38.862Z,100665.59
2023-05-15T04:12:06.575Z,100674.41
2023-05-15T04:14:34.172Z,100675.59
2023-05-15T04:17:02.187Z,100672.31
2023-05-15T04:19:29.906Z,100678.28
2023-05-15T04:21:57.611Z,100680.06
2023-05-15T04:24:26.483Z,100681.75
2023-05-15T04:26:54.393Z,100669.72
2023-05-15T04:29:22.139Z,100676.78
2023-05-15T04:31:50.109Z,100676.81
2023-05-15T04:34:18.887Z,100674.44
2023-05-15T04:36:46.655Z,100676.38
2023-05-15T04:39:14.464Z,100680.97
2023-05-15T04:41:42.278Z,100675.16
2023-05-15T04:44:10.054Z,100670.31
2023-05-15T04:46:38.266Z,100671.53
2023-05-15T04:49:06.814Z,100666.78
2023-05-15T04:51:34.560Z,100665.34
2023-05-15T04:54:02.402Z,100675.25
2023-05-15T04:56:30.098Z,100685.16
2023-05-15T04:58:57.829Z,100677.63
2023-05-15T05:01:25.715Z,100677.81
2023-05-15T05:03:53.344Z,100679.81
2023-05-15T05:06:21.553Z,100680.91
2023-05-15T05:08:49.285Z,100674.94
2023-05-15T05:11:16.921Z,100672.69
2023-05-15T05:13:44.408Z,100675.56
2023-05-15T05:16:12.157Z,100671.69
2023-05-15T05:18:39.781Z,100664.97
2023-05-15T05:21:07.456Z,100677.47
2023-05-15T05:23:35.077Z,100674.19
2023-05-15T05:26:04.243Z,100672.56
2023-05-15T05:28:33.815Z,100660.03
2023-05-15T05:31:02.670Z,100654.19
2023-05-15T05:33:30.477Z,100657.84
2023-05-15T05:35:58.007Z,100657.25
2023-05-15T05:38:27.731Z,100661.94
2023-05-15T05:40:55.389Z,100649.84
2023-05-15T05:43:22.936Z,100663.13
2023-05-15T05:45:50.942Z,100663.28
2023-05-15T05:48:18.534Z,100662.72
2023-05-15T05:50:46.223Z,100660.38
2023-05-15T05:53:13.727Z,100665.91
2023-05-15T05:55:41.365Z,100648.72
2023-05-15T05:58:15.120Z,100653.31
2023-05-15T06:00:52.638Z,100646.47
2023-05-15T06:03:21.555Z,100653.56
2023-05-15T06:05:49.166Z,100646.00
2023-05-15T06:08:17.101Z,100643.69
2023-05-15T06:10:44.847Z,100640.59
2023-05-15T06:13:14.844Z,100642.31
2023-05-15T06:15:42.743Z,100644.16
2023-05-15T06:18:10.420Z,100642.53
2023-05-15T06:20:38.543Z,100647.69
2023-05-15T06:23:06.094Z,100637.22
2023-05-15T06:25:33.749Z,100638.19
2023-05-15T06:28:01.417Z,100645.22
2023-05-15T06:30:29.160Z,100643.41
2023-05-15T06:32:56.756Z,100632.28
2023-05-15T06:35:24.435Z,100635.25
2023-05-15T06:37:53.196Z,100639.66
2023-05-15T06:40:21.121Z,100635.94
2023-05-15T06:42:48.858Z,100635.56
2023-05-15T06:45:16.604Z,100631.84
2023-05-15T06:47:44.387Z,100640.72
2023-05-15T06:50:12.223Z,100638.38
2023-05-15T06:52:40.041Z,100628.72
2023-05-15T06:55:08.156Z,100633.66
2023-05-15T06:57:35.989Z,100634.28
2023-05-15T07:00:04.917Z,100625.44
2023-05-15T07:02:34.509Z,100625.53
2023-05-15T07:05:02.242Z,100625.56
2023-05-15T07:07:32.599Z,100633.44
2023-05-15T07:10:00.092Z,100630.56
2023-05-15T07:12:27.707Z,100634.88
2023-05-15T07:14:55.202Z,100632.31
2023-05-15T07:17:22.892Z,100634.19
2023-05-15T07:19:50.565Z,100627.56
2023-05-15T07:22:18.260Z,100627.09
2023-05-15T07:24:46.101Z,100614.06
2023-05-15T07:27:13.780Z,100607.84
2023-05-15T07:29:41.319Z,100621.91
2023-05-15T07:32:22.344Z,100614.06
2023-05-15T07:34:49.931Z,100610.56
2023-05-15T07:37:17.470Z,100616.66
2023-05-15T07:39:45.149Z,100610.34
2023-05-15T07:42:12.906Z,100608.50
2023-05-15T07:44:41.883Z,100610.22
2023-05-15T07:47:12.044Z,100606.31
2023-05-15T07:49:39.755Z,100595.78
2023-05-15T07:52:07.554Z,100595.84
2023-05-15T07:54:35.280Z,100593.44
2023-05-15T07:57:02.974Z,100590.63
2023-05-15T07:59:31.178Z,100574.09
2023-05-15T08:01:58.751Z,100584.25
2023-05-15T08:04:26.679Z,100578.47
2023-05-15T08:06:54.361Z,100580.28
2023-05-15T08:09:21.959Z,100575.06
2023-05-15T08:11:49.642Z,100573.00
2023-05-15T08:14:17.538Z,100578.50
2023-05-15T08:16:45.150Z,100578.72
2023-05-15T08:19:12.879Z,100580.84
2023-05-15T08:21:40.993Z,100575.50
2023-05-15T08:24:09.281Z,100572.84
2023-05-15T08:26:36.886Z,100569.94
2023-05-15T08:29:05.154Z,100565.56
2023-05-15T08:31:33.191Z,100560.19
2023-05-15T08:34:00.828Z,100551.13
2023-05-15T08:36:28.598Z,100556.69
2023-05-15T08:38:56.288Z,100553.38
2023-05-15T08:41:40.661Z,100545.94
2023-05-15T08:44:09.775Z,100558.66
2023-05-15T08:46:37.551Z,100550.84
2023-05-15T08:49:14.877Z,100557.59
2023-05-15T08:51:42.816Z,100555.78
2023-05-15T08:54:11.722Z,100561.94
2023-05-15T08:56:39.542Z,100555.47
2023-05-15T08:59:07.186Z,100547.16
2023-05-15T09:01:36.163Z,100548.34
2023-05-15T09:04:04.963Z,100545.34
2023-05-15T09:06:33.979Z,100541.69
2023-05-15T09:09:03.906Z,100532.16
2023-05-15T09:11:32.387Z,100536.63
2023-05-15T09:14:00.160Z,100522.94
2023-05-15T09:16:28.099Z,100524.28
2023-05-15T09:18:56.395Z,100518.47
2023-05-15T09:21:29.617Z,100512.72
2023-05-15T09:24:24.904Z,100512.34
2023-05-15T09:27:06.957Z,100517.38
2023-05-15T09:29:36.057Z,100506.28
2023-05-15T09:32:06.508Z,100495.38
2023-05-15T09:34:39.612Z,100502.84
2023-05-15T09:37:09.968Z,100501.59
2023-05-15T09:39:44.229Z,100504.44
2023-05-15T09:42:14.355Z,100505.31
2023-05-15T09:44:43.423Z,100498.13
2023-05-15T09:47:13.861Z,100502.16
2023-05-15T09:49:44.397Z,100497.84
2023-05-15T09:52:12.151Z,100490.00
2023-05-15T09:54:40.469Z,100484.97
2023-05-15T09:57:10.240Z,100493.38
2023-05-15T09:59:48.380Z,100497.50
2023-05-15T10:02:31.795Z,100489.75
2023-05-15T10:05:00.826Z,100485.63
2023-05-15T10:07:36.281Z,100482.41
2023-05-15T10:10:05.392Z,100486.00
2023-05-15T10:12:36.711Z,100483.59
2023-05-15T10:15:05.786Z,100478.91
2023-05-15T10:17:36.970Z,100475.53
2023-05-15T10:20:07.205Z,100478.97
2023-05-15T10:22:42.126Z,100472.25
2023-05-15T10:25:16.937Z,100474.66
2023-05-15T10:27:46.714Z,100479.78
2023-05-15T10:30:17.228Z,100472.13
2023-05-15T10:32:45.960Z,100471.50
2023-05-15T10:35:13.568Z,100463.44
2023-05-15T10:37:41.316Z,100466.34
2023-05-15T10:40:10.585Z,100454.56
2023-05-15T10:42:38.731Z,100473.47
2023-05-15T10:45:08.973Z,100468.31
2023-05-15T10:47:41.084Z,100472.56
2023-05-15T10:50:09.669Z,100461.81
2023-05-15T10:52:38.667Z,100461.16
2023-05-15T10:55:14.071Z,100461.63
2023-05-15T10:57:42.064Z,100453.56
2023-05-15T11:00:29.477Z,100459.91
2023-05-15T11:02:58.870Z,100445.31
2023-05-15T11:05:27.077Z,100443.66
2023-05-15T11:08:16.104Z,100445.38
2023-05-15T11:10:43.862Z,100438.69
2023-05-15T11:13:12.239Z,100437.22
2023-05-15T11:15:44.765Z,100439.97
2023-05-15T11:18:13.345Z,100433.06
2023-05-15T11:21:01.315Z,100442.25
2023-05-15T11:23:28.943Z,100426.75
2023-05-15T11:25:57.601Z,100437.44
2023-05-15T11:28:30.005Z,100437.88
2023-05-15T11:31:06.879Z,100434.56
2023-05-15T11:33:34.737Z,100432.53
2023-05-15T11:36:05.433Z,100430.88
2023-05-15T11:38:39.101Z,100430.75
2023-05-15T11:41:18.752Z,100427.94
2023-05-15T11:43:46.837Z,100428.28
2023-05-15T11:46:16.083Z,100420.31
2023-05-15T11:48:47.937Z,100425.03
2023-05-15T11:51:22.765Z,100415.84
2023-05-15T11:53:52.023Z,100419.72
2023-05-15T11:56:22.955Z,100413.59
2023-05-15T11:58:58.420Z,100407.91
2023-05-15T12:01:26.806Z,100412.66
2023-05-15T12:03:55.224Z,100401.09
2023-05-15T12:06:23.197Z,100404.13
2023-05-15T12:08:52.954Z,100403.66
2023-05-15T12:11:25.352Z,100404.00
2023-05-15T12:13:54.990Z,100406.66
2023-05-15T12:16:27.253Z,100397.03
2023-05-15T12:18:57.411Z,100390.22
2023-05-15T12:21:27.257Z,100392.91
2023-05-15T12:26:29.367Z,100380.38
2023-05-15T12:28:57.746Z,100380.75
2023-05-15T12:31:25.709Z,100387.56
2023-05-15T12:33:53.379Z,100392.63
2023-05-15T12:36:22.029Z,100386.75
2023-05-15T12:38:49.681Z,100378.47
2023-05-15T12:41:20.492Z,100372.16
2023-05-15T12:43:48.709Z,100382.00
2023-05-15T12:46:16.252Z,100374.59
2023-05-15T12:48:44.158Z,100375.41
2023-05-15T12:51:11.725Z,100370.91
2023-05-15T12:53:42.584Z,100371.97
2023-05-15T12:56:10.347Z,100366.16
2023-05-15T12:58:38.862Z,100369.09
2023-05-15T13:01:06.644Z,100366.31
2023-05-15T13:03:35.194Z,100362.63
2023-05-15T13:06:03.864Z,100376.06
2023-05-15T13:08:31.929Z,100363.22
2023-05-15T13:11:01.126Z,100364.38
2023-05-15T13:13:46.389Z,100366.19
2023-05-15T13:16:25.246Z,100362.06
2023-05-15T13:18:53.701Z,100363.13
2023-05-15T13:21:21.616Z,100354.50
2023-05-15T13:23:49.329Z,100352.84
2023-05-15T13:26:17.207Z,100357.31
2023-05-15T13:28:45.011Z,100354.69
2023-05-15T13:31:12.802Z,100362.59
2023-05-15T13:33:40.680Z,100352.16
2023-05-15T13:36:08.684Z,100354.78
2023-05-15T13:38:36.380Z,100339.13
2023-05-15T13:41:05.145Z,100340.91
2023-05-15T13:43:32.988Z,100342.63
2023-05-15T13:46:00.705Z,100346.16
2023-05-15T13:48:28.321Z,100352.25
2023-05-15T13:50:56.208Z,100339.19
2023-05-15T13:53:23.949Z,100347.03
2023-05-15T13:55:51.670Z,100347.03
2023-05-15T13:58:19.693Z,100336.59
2023-05-15T14:00:48.714Z,100345.31
2023-05-15T14:03:16.456Z,100347.03
2023-05-15T14:05:44.417Z,100333.06
2023-05-15T14:08:12.249Z,100330.44
2023-05-15T14:10:39.767Z,100333.09
2023-05-15T14:13:07.502Z,100333.91
2023-05-15T14:15:35.117Z,100331.28
2023-05-15T14:18:02.806Z,100342.59
2023-05-15T14:20:30.578Z,100344.31
2023-05-15T14:22:58.327Z,100345.19
2023-05-15T14:25:25.965Z,100339.94
2023-05-15T14:27:53.620Z,100331.19
2023-05-15T14:30:22.151Z,100339.00
2023-05-15T14:32:49.854Z,100335.50
2023-05-15T14:35:17.519Z,100339.81
2023-05-15T14:37:45.374Z,100334.56
2023-05-15T14:40:13.465Z,100338.03
2023-05-15T14:42:41.136Z,100330.19
2023-05-15T14:45:09.300Z,100331.03
2023-05-15T14:47:37.033Z,100330.19
2023-05-15T14:50:05.064Z,100330.16
2023-05-15T14:52:33.039Z,100312.66
2023-05-15T14:55:09.247Z,100325.72
2023-05-15T14:57:40.770Z,100324.84
2023-05-15T15:00:09.707Z,100320.47
2023-05-15T15:02:37.590Z,100321.28
2023-05-15T15:05:05.786Z,100322.97
2023-05-15T15:08:02.140Z,100325.59
2023-05-15T15:10:30.893Z,100318.56
2023-05-15T15:12:59.142Z,100312.41
2023-05-15T15:15:27.207Z,100318.53
2023-05-15T15:17:57.405Z,100303.66
2023-05-15T15:20:27.169Z,100321.09
2023-05-15T15:22:55.827Z,100310.59
2023-05-15T15:25:23.567Z,100327.16
2023-05-15T15:27:51.473Z,100322.78
2023-05-15T15:30:19.367Z,100312.34
2023-05-15T15:32:47.271Z,100313.16
2023-05-15T15:35:15.101Z,100319.28
2023-05-15T15:37:42.795Z,100309.66
2023-05-15T15:40:11.146Z,100305.25
2023-05-15T15:42:38.889Z,100309.63
2023-05-15T15:45:07.022Z,100302.59
2023-05-15T15:47:35.519Z,100314.78
2023-05-15T15:50:03.391Z,100307.81
2023-05-15T15:52:33.349Z,100312.16
2023-05-15T15:55:01.097Z,100316.44
2023-05-15T15:57:30.161Z,100316.41
2023-05-15T15:59:58.302Z,100307.66
2023-05-15T16:02:26.022Z,100305.03
2023-05-15T16:04:53.664Z,100310.19
2023-05-15T16:07:21.537Z,100302.34
2023-05-15T16:09:56.879Z,100307.53
2023-05-15T16:12:37.013Z,100314.47
2023-05-15T16:15:20.977Z,100310.09
2023-05-15T16:17:52.980Z,100321.34
2023-05-15T16:20:21.340Z,100311.78
2023-05-15T16:22:48.980Z,100316.97
2023-05-15T16:25:16.536Z,100310.84
2023-05-15T16:27:44.088Z,100309.06
2023-05-15T16:30:12.412Z,100316.03
2023-05-15T16:32:40.651Z,100315.09
2023-05-15T16:35:08.945Z,100315.94
2023-05-15T16:37:36.801Z,100310.69
2023-05-15T16:40:04.945Z,100314.13
2023-05-15T16:42:37.140Z,100303.63
2023-05-15T16:45:05.747Z,100310.56
2023-05-15T16:47:34.174Z,100311.41
2023-05-15T16:50:01.917Z,100322.66
2023-05-15T16:52:31.930Z,100319.09
2023-05-15T16:54:59.642Z,100317.34
2023-05-15T16:57:27.427Z,100321.63
2023-05-15T16:59:56.552Z,100325.06
2023-05-15T17:02:24.320Z,100318.91
2023-05-15T17:04:53.374Z,100313.59
2023-05-15T17:07:21.365Z,100319.69
2023-05-15T17:09:48.975Z,100322.25
2023-05-15T17:12:16.988Z,100322.19
2023-05-15T17:14:44.671Z,100318.72
2023-05-15T17:17:12.397Z,100316.06
2023-05-15T17:19:40.078Z,100320.31
2023-05-15T17:22:07.822Z,100321.94
2023-05-15T17:24:49.417Z,100326.25
2023-05-15T17:27:20.584Z,100323.59
2023-05-15T17:29:49.002Z,100327.88
2023-05-15T17:32:18.291Z,100327.81
2023-05-15T17:34:46.995Z,100331.25
2023-05-15T17:37:16.150Z,100326.84
2023-05-15T17:39:43.855Z,100314.59
2023-05-15T17:42:11.634Z,100306.66
2023-05-15T17:44:39.370Z,100336.25
2023-05-15T17:47:07.892Z,100339.66
2023-05-15T17:49:36.006Z,100335.22
2023-05-15T17:52:03.782Z,100341.22
2023-05-15T17:54:31.425Z,100342.03
2023-05-15T17:56:59.103Z,100330.59
2023-05-15T17:59:26.724Z,100339.16
2023-05-15T18:01:54.589Z,100346.97
2023-05-15T18:04:22.293Z,100345.13
2023-05-15T18:06:51.126Z,100350.22
2023-05-15T18:09:23.131Z,100354.47
2023-05-15T18:11:52.262Z,100357.81
2023-05-15T18:14:20.251Z,100366.41
2023-05-15T18:16:47.838Z,100337.69
2023-05-15T18:19:15.626Z,100356.84
2023-05-15T18:21:43.268Z,100355.00
2023-05-15T18:24:12.367Z,100347.88
2023-05-15T18:26:40.050Z,100355.66
2023-05-15T18:29:07.867Z,100348.56
2023-05-15T18:31:36.635Z,100350.34
2023-05-15T18:34:05.592Z,100360.69
2023-05-15T18:36:33.463Z,100367.53
2023-05-15T18:39:02.674Z,100362.16
2023-05-15T18:41:31.458Z,100364.03
2023-05-15T18:43:59.122Z,100362.31
2023-05-15T18:46:28.399Z,100368.38
2023-05-15T18:48:56.373Z,100360.38
2023-05-15T18:51:24.057Z,100373.28
2023-05-15T18:53:52.059Z,100374.00
2023-05-15T18:56:19.618Z,100374.72
2023-05-15T18:58:47.511Z,100365.97
2023-05-15T19:01:15.394Z,100371.09
2023-05-15T19:03:43.114Z,100376.16
2023-05-15T19:06:11.649Z,100372.56
2023-05-15T19:08:39.254Z,100375.16
2023-05-15T19:11:08.844Z,100366.38
2023-05-15T19:13:36.575Z,100367.19
2023-05-15T19:16:06.180Z,100370.56
2023-05-15T19:18:34.032Z,100374.00
2023-05-15T19:21:01.697Z,100360.00
2023-05-15T19:23:29.419Z,100378.25
2023-05-15T19:25:57.099Z,100382.63
2023-05-15T19:28:24.713Z,100370.38
2023-05-15T19:30:52.276Z,100372.03
2023-05-15T19:33:19.943Z,100381.56
2023-05-15T19:35:47.751Z,100381.41
2023-05-15T19:38:15.591Z,100377.81
2023-05-15T19:40:45.306Z,100387.41
2023-05-15T19:43:14.315Z,100392.44
2023-05-15T19:45:42.429Z,100394.94
2023-05-15T19:48:10.226Z,100371.44
2023-05-15T19:50:41.134Z,100392.34
2023-05-15T19:53:08.957Z,100390.63
2023-05-15T19:55:36.565Z,100389.69
2023-05-15T19:58:04.412Z,100387.00
2023-05-15T20:00:32.560Z,100372.06
2023-05-15T20:03:01.018Z,100385.94
2023-05-15T20:05:28.983Z,100388.44
2023-05-15T20:07:56.594Z,100382.19
2023-05-15T20:10:24.864Z,100391.69
2023-05-15T20:12:52.685Z,100385.38
2023-05-15T20:15:20.538Z,100396.72
2023-05-15T20:17:48.298Z,100398.47
2023-05-15T20:20:16.747Z,100388.78
2023-05-15T20:22:44.875Z,100400.03
2023-05-15T20:25:12.879Z,100403.41
2023-05-15T20:27:40.540Z,100397.19
2023-05-15T20:30:08.770Z,100400.50
2023-05-15T20:32:37.315Z,100401.13
2023-05-15T20:35:06.168Z,100395.91
2023-05-15T20:37:34.642Z,100391.56
2023-05-15T20:40:02.334Z,100391.47
2023-05-15T20:42:30.257Z,100396.59
2023-05-15T20:44:57.900Z,100386.09
2023-05-15T20:47:25.851Z,100389.44
2023-05-15T20:49:53.824Z,100397.16
2023-05-15T20:52:21.739Z,100398.78
2023-05-15T20:54:49.432Z,100401.22
2023-05-15T20:57:17.004Z,100395.91
2023-05-15T20:59:44.827Z,100388.69
2023-05-15T21:02:12.400Z,100399.13
2023-05-15T21:04:39.959Z,100409.38
2023-05-15T21:07:08.297Z,100410.94
2023-05-15T21:09:36.018Z,100408.28
2023-05-15T21:12:04.254Z,100405.53
2023-05-15T21:14:32.109Z,100415.91
2023-05-15T21:16:59.899Z,100402.69
2023-05-15T21:19:27.802Z,100400.91
2023-05-15T21:21:55.799Z,100407.00
2023-05-15T21:24:23.510Z,100415.56
2023-05-15T21:26:51.351Z,100415.53
2023-05-15T21:29:19.080Z,100416.25
2023-05-15T21:31:47.010Z,100410.97
2023-05-15T21:34:14.700Z,100390.63
2023-05-15T21:36:43.702Z,100409.75
2023-05-15T21:39:11.676Z,100417.53
2023-05-15T21:41:39.237Z,100419.22
2023-05-15T21:44:07.101Z,100419.03
2023-05-15T21:46:35.329Z,100423.25
2023-05-15T21:49:03.550Z,100430.88
2023-05-15T21:51:31.201Z,100426.31
2023-05-15T21:53:58.724Z,100425.41
2023-05-15T21:56:26.673Z,100429.56
2023-05-15T21:58:54.335Z,100433.75
2023-05-15T22:01:21.933Z,100425.03
2023-05-15T22:03:49.752Z,100413.38
2023-05-15T22:06:17.485Z,100431.50
2023-05-15T22:08:45.077Z,100427.00
2023-05-15T22:11:12.706Z,100442.63
2023-05-15T22:13:40.307Z,100439.09
2023-05-15T22:16:08.054Z,100443.31
2023-05-15T22:18:35.802Z,100438.81
2023-05-15T22:21:03.549Z,100436.13
2023-05-15T22:23:32.270Z,100437.75
2023-05-15T22:25:59.933Z,100429.91
2023-05-15T22:28:27.602Z,100435.97
2023-05-15T22:30:55.099Z,100434.16
2023-05-15T22:33:25.806Z,100432.41
2023-05-15T22:35:53.790Z,100435.75
2023-05-15T22:38:21.412Z,100429.63
2023-05-15T22:40:52.793Z,100432.09
2023-05-15T22:43:22.168Z,100426.00
2023-05-15T22:45:50.157Z,100432.03
2023-05-15T22:48:17.951Z,100437.16
2023-05-15T22:50:45.647Z,100437.91
2023-05-15T22:53:13.523Z,100434.41
2023-05-15T22:55:41.629Z,100425.44
2023-05-15T22:58:09.490Z,100426.31
2023-05-15T23:00:37.311Z,100440.25
2023-05-15T23:03:05.184Z,100428.06
2023-05-15T23:05:32.840Z,100432.38
2023-05-15T23:08:00.534Z,100427.97
2023-05-15T23:10:28.393Z,100438.25
2023-05-15T23:12:58.763Z,100431.25
2023-05-15T23:15:26.360Z,100422.31
2023-05-15T23:17:54.127Z,100426.69
2023-05-15T23:20:21.757Z,100423.19
2023-05-15T23:22:49.528Z,100422.28
2023-05-15T23:25:17.160Z,100428.34
2023-05-15T23:27:44.829Z,100435.22
2023-05-15T23:30:12.731Z,100437.75
2023-05-15T23:32:40.346Z,100422.84
2023-05-15T23:35:08.406Z,100425.47
2023-05-15T23:37:36.034Z,100431.53
2023-05-15T23:40:05.440Z,100437.59
2023-05-15T23:42:33.102Z,100454.72
2023-05-15T23:45:00.808Z,100462.28
2023-05-15T23:47:28.506Z,100462.28
2023-05-15T23:49:56.175Z,100452.03
2023-05-15T23:52:23.819Z,100449.47
2023-05-15T23:54:51.521Z,100443.53
2023-05-15T23:57:19.051Z,100432.19
2023-05-15T23:59:46.559Z,100458.28
